sensor_id;sensor_type;location;lat;lon;timestamp;P1;durP1;ratioP1;P2;durP2;ratioP2
75628;SDS011;64213;46.452;16.994;2024-03-06T00:02:58;27.97;;;11.07;;
75628;SDS011;64213;46.452;16.994;2024-03-06T00:06:00;29.08;;;10.80;;
75628;SDS011;64213;46.452;16.994;2024-03-06T00:09:02;25.00;;;10.10;;
75628;SDS011;64213;46.452;16.994;2024-03-06T00:12:05;30.50;;;12.10;;
75628;SDS011;64213;46.452;16.994;2024-03-06T00:15:08;29.57;;;10.23;;
75628;SDS011;64213;46.452;16.994;2024-03-06T00:18:13;30.37;;;10.47;;
75628;SDS011;64213;46.452;16.994;2024-03-06T00:21:16;26.65;;;10.02;;
75628;SDS011;64213;46.452;16.994;2024-03-06T00:24:19;26.92;;;10.43;;
75628;SDS011;64213;46.452;16.994;2024-03-06T00:27:22;27.15;;;10.27;;
75628;SDS011;64213;46.452;16.994;2024-03-06T00:30:24;31.97;;;10.67;;
75628;SDS011;64213;46.452;16.994;2024-03-06T00:33:27;30.17;;;11.23;;
75628;SDS011;64213;46.452;16.994;2024-03-06T00:36:30;26.98;;;10.60;;
75628;SDS011;64213;46.452;16.994;2024-03-06T00:39:32;30.27;;;11.48;;
75628;SDS011;64213;46.452;16.994;2024-03-06T00:42:35;26.83;;;10.82;;
75628;SDS011;64213;46.452;16.994;2024-03-06T00:45:38;26.60;;;10.67;;
75628;SDS011;64213;46.452;16.994;2024-03-06T00:48:40;28.70;;;10.70;;
75628;SDS011;64213;46.452;16.994;2024-03-06T00:51:43;27.42;;;10.00;;
75628;SDS011;64213;46.452;16.994;2024-03-06T00:54:50;27.62;;;11.30;;
75628;SDS011;64213;46.452;16.994;2024-03-06T00:57:53;28.35;;;11.05;;
75628;SDS011;64213;46.452;16.994;2024-03-06T01:00:56;26.50;;;10.40;;
75628;SDS011;64213;46.452;16.994;2024-03-06T01:04:00;25.40;;;10.63;;
75628;SDS011;64213;46.452;16.994;2024-03-06T01:07:03;30.05;;;10.35;;
75628;SDS011;64213;46.452;16.994;2024-03-06T01:10:06;28.52;;;10.75;;
75628;SDS011;64213;46.452;16.994;2024-03-06T01:13:09;29.85;;;10.57;;
75628;SDS011;64213;46.452;16.994;2024-03-06T01:16:12;24.57;;;10.07;;
75628;SDS011;64213;46.452;16.994;2024-03-06T01:19:15;28.03;;;11.33;;
75628;SDS011;64213;46.452;16.994;2024-03-06T01:22:18;28.95;;;11.25;;
75628;SDS011;64213;46.452;16.994;2024-03-06T01:25:20;29.98;;;11.23;;
75628;SDS011;64213;46.452;16.994;2024-03-06T01:28:23;36.33;;;12.88;;
75628;SDS011;64213;46.452;16.994;2024-03-06T01:31:25;32.87;;;12.83;;
75628;SDS011;64213;46.452;16.994;2024-03-06T01:34:28;31.13;;;11.30;;
75628;SDS011;64213;46.452;16.994;2024-03-06T01:37:30;33.65;;;12.27;;
75628;SDS011;64213;46.452;16.994;2024-03-06T01:40:32;31.17;;;11.23;;
75628;SDS011;64213;46.452;16.994;2024-03-06T01:43:38;39.00;;;12.48;;
75628;SDS011;64213;46.452;16.994;2024-03-06T01:46:42;35.67;;;12.67;;
75628;SDS011;64213;46.452;16.994;2024-03-06T01:49:46;39.97;;;11.27;;
75628;SDS011;64213;46.452;16.994;2024-03-06T01:52:50;31.80;;;11.43;;
75628;SDS011;64213;46.452;16.994;2024-03-06T01:55:53;36.13;;;13.30;;
75628;SDS011;64213;46.452;16.994;2024-03-06T01:58:57;30.08;;;11.77;;
75628;SDS011;64213;46.452;16.994;2024-03-06T02:02:00;35.90;;;14.33;;
75628;SDS011;64213;46.452;16.994;2024-03-06T02:05:06;32.23;;;12.37;;
75628;SDS011;64213;46.452;16.994;2024-03-06T02:08:09;31.60;;;13.10;;
75628;SDS011;64213;46.452;16.994;2024-03-06T02:11:12;33.95;;;12.85;;
75628;SDS011;64213;46.452;16.994;2024-03-06T02:14:15;27.70;;;11.30;;
75628;SDS011;64213;46.452;16.994;2024-03-06T02:17:18;30.83;;;12.23;;
75628;SDS011;64213;46.452;16.994;2024-03-06T02:20:24;33.70;;;11.63;;
75628;SDS011;64213;46.452;16.994;2024-03-06T02:23:26;35.38;;;12.00;;
75628;SDS011;64213;46.452;16.994;2024-03-06T02:26:29;36.38;;;14.70;;
75628;SDS011;64213;46.452;16.994;2024-03-06T02:29:32;30.50;;;11.57;;
75628;SDS011;64213;46.452;16.994;2024-03-06T02:32:37;34.80;;;11.93;;
75628;SDS011;64213;46.452;16.994;2024-03-06T02:35:40;30.97;;;11.07;;
75628;SDS011;64213;46.452;16.994;2024-03-06T02:38:43;30.27;;;11.82;;
75628;SDS011;64213;46.452;16.994;2024-03-06T02:41:47;30.50;;;11.63;;
75628;SDS011;64213;46.452;16.994;2024-03-06T02:44:50;30.48;;;11.88;;
75628;SDS011;64213;46.452;16.994;2024-03-06T02:47:53;30.23;;;11.77;;
75628;SDS011;64213;46.452;16.994;2024-03-06T02:50:56;31.13;;;11.10;;
75628;SDS011;64213;46.452;16.994;2024-03-06T02:53:58;32.22;;;12.00;;
75628;SDS011;64213;46.452;16.994;2024-03-06T02:57:01;36.05;;;12.30;;
75628;SDS011;64213;46.452;16.994;2024-03-06T03:00:04;30.92;;;12.13;;
75628;SDS011;64213;46.452;16.994;2024-03-06T03:03:07;27.37;;;10.80;;
75628;SDS011;64213;46.452;16.994;2024-03-06T03:06:10;32.53;;;11.87;;
75628;SDS011;64213;46.452;16.994;2024-03-06T03:09:12;29.37;;;11.00;;
75628;SDS011;64213;46.452;16.994;2024-03-06T03:12:16;27.92;;;11.60;;
75628;SDS011;64213;46.452;16.994;2024-03-06T03:15:18;30.67;;;10.48;;
75628;SDS011;64213;46.452;16.994;2024-03-06T03:18:20;30.23;;;11.90;;
75628;SDS011;64213;46.452;16.994;2024-03-06T03:21:23;31.40;;;11.57;;
75628;SDS011;64213;46.452;16.994;2024-03-06T03:24:25;27.65;;;11.60;;
75628;SDS011;64213;46.452;16.994;2024-03-06T03:27:28;30.42;;;12.23;;
75628;SDS011;64213;46.452;16.994;2024-03-06T03:30:31;28.42;;;11.80;;
75628;SDS011;64213;46.452;16.994;2024-03-06T03:33:40;32.87;;;11.63;;
75628;SDS011;64213;46.452;16.994;2024-03-06T03:36:43;29.07;;;10.83;;
75628;SDS011;64213;46.452;16.994;2024-03-06T03:39:46;28.85;;;10.60;;
75628;SDS011;64213;46.452;16.994;2024-03-06T03:42:49;38.00;;;13.05;;
75628;SDS011;64213;46.452;16.994;2024-03-06T03:45:51;33.70;;;11.18;;
75628;SDS011;64213;46.452;16.994;2024-03-06T03:48:54;35.63;;;12.67;;
75628;SDS011;64213;46.452;16.994;2024-03-06T03:51:57;31.90;;;10.57;;
75628;SDS011;64213;46.452;16.994;2024-03-06T03:54:59;29.05;;;11.23;;
75628;SDS011;64213;46.452;16.994;2024-03-06T03:58:02;25.77;;;8.75;;
75628;SDS011;64213;46.452;16.994;2024-03-06T04:01:05;28.75;;;10.68;;
75628;SDS011;64213;46.452;16.994;2024-03-06T04:04:08;32.90;;;11.17;;
75628;SDS011;64213;46.452;16.994;2024-03-06T04:07:10;29.47;;;10.00;;
75628;SDS011;64213;46.452;16.994;2024-03-06T04:10:13;31.75;;;11.52;;
75628;SDS011;64213;46.452;16.994;2024-03-06T04:13:15;34.85;;;12.80;;
75628;SDS011;64213;46.452;16.994;2024-03-06T04:16:18;28.20;;;10.93;;
75628;SDS011;64213;46.452;16.994;2024-03-06T04:19:21;32.53;;;11.50;;
75628;SDS011;64213;46.452;16.994;2024-03-06T04:22:24;28.77;;;11.23;;
75628;SDS011;64213;46.452;16.994;2024-03-06T04:25:26;29.25;;;11.27;;
75628;SDS011;64213;46.452;16.994;2024-03-06T04:28:29;31.10;;;11.98;;
75628;SDS011;64213;46.452;16.994;2024-03-06T04:31:32;31.30;;;11.68;;
75628;SDS011;64213;46.452;16.994;2024-03-06T04:34:36;28.67;;;11.37;;
75628;SDS011;64213;46.452;16.994;2024-03-06T04:37:40;34.33;;;12.17;;
75628;SDS011;64213;46.452;16.994;2024-03-06T04:40:42;33.65;;;12.43;;
75628;SDS011;64213;46.452;16.994;2024-03-06T04:43:44;29.40;;;11.88;;
75628;SDS011;64213;46.452;16.994;2024-03-06T04:46:49;30.95;;;13.02;;
75628;SDS011;64213;46.452;16.994;2024-03-06T04:49:52;37.40;;;13.10;;
75628;SDS011;64213;46.452;16.994;2024-03-06T04:52:55;33.47;;;12.77;;
75628;SDS011;64213;46.452;16.994;2024-03-06T04:55:58;30.95;;;11.30;;
75628;SDS011;64213;46.452;16.994;2024-03-06T04:59:00;29.58;;;11.50;;
75628;SDS011;64213;46.452;16.994;2024-03-06T05:02:05;31.35;;;12.13;;
75628;SDS011;64213;46.452;16.994;2024-03-06T05:05:08;30.37;;;11.43;;
75628;SDS011;64213;46.452;16.994;2024-03-06T05:08:28;33.40;;;10.63;;
75628;SDS011;64213;46.452;16.994;2024-03-06T05:11:49;27.77;;;10.75;;
75628;SDS011;64213;46.452;16.994;2024-03-06T05:15:10;31.77;;;13.27;;
75628;SDS011;64213;46.452;16.994;2024-03-06T05:18:31;31.12;;;11.60;;
75628;SDS011;64213;46.452;16.994;2024-03-06T05:21:51;30.13;;;11.13;;
75628;SDS011;64213;46.452;16.994;2024-03-06T05:25:10;28.13;;;10.70;;
75628;SDS011;64213;46.452;16.994;2024-03-06T05:28:30;27.00;;;10.45;;
75628;SDS011;64213;46.452;16.994;2024-03-06T05:31:50;32.15;;;12.52;;
75628;SDS011;64213;46.452;16.994;2024-03-06T05:35:09;32.03;;;13.02;;
75628;SDS011;64213;46.452;16.994;2024-03-06T05:38:29;36.10;;;12.90;;
75628;SDS011;64213;46.452;16.994;2024-03-06T05:41:50;31.50;;;11.73;;
75628;SDS011;64213;46.452;16.994;2024-03-06T05:45:11;37.38;;;13.90;;
75628;SDS011;64213;46.452;16.994;2024-03-06T05:48:31;36.65;;;13.23;;
75628;SDS011;64213;46.452;16.994;2024-03-06T05:51:52;38.55;;;13.50;;
75628;SDS011;64213;46.452;16.994;2024-03-06T05:55:12;39.80;;;13.97;;
75628;SDS011;64213;46.452;16.994;2024-03-06T05:58:31;40.27;;;14.37;;
75628;SDS011;64213;46.452;16.994;2024-03-06T06:01:34;35.90;;;12.77;;
75628;SDS011;64213;46.452;16.994;2024-03-06T06:04:37;36.33;;;12.52;;
75628;SDS011;64213;46.452;16.994;2024-03-06T06:07:52;31.10;;;12.85;;
75628;SDS011;64213;46.452;16.994;2024-03-06T06:10:55;40.87;;;14.57;;
75628;SDS011;64213;46.452;16.994;2024-03-06T06:13:57;33.43;;;13.37;;
75628;SDS011;64213;46.452;16.994;2024-03-06T06:17:00;42.00;;;15.00;;
75628;SDS011;64213;46.452;16.994;2024-03-06T06:20:03;47.90;;;16.42;;
75628;SDS011;64213;46.452;16.994;2024-03-06T06:23:12;33.97;;;12.65;;
75628;SDS011;64213;46.452;16.994;2024-03-06T06:26:14;32.40;;;11.23;;
75628;SDS011;64213;46.452;16.994;2024-03-06T06:29:17;42.47;;;14.80;;
75628;SDS011;64213;46.452;16.994;2024-03-06T06:32:23;44.05;;;14.87;;
75628;SDS011;64213;46.452;16.994;2024-03-06T06:35:25;34.65;;;13.05;;
75628;SDS011;64213;46.452;16.994;2024-03-06T06:38:30;38.50;;;12.75;;
75628;SDS011;64213;46.452;16.994;2024-03-06T06:41:32;35.07;;;12.90;;
75628;SDS011;64213;46.452;16.994;2024-03-06T06:44:35;33.60;;;13.03;;
75628;SDS011;64213;46.452;16.994;2024-03-06T06:47:38;34.42;;;12.63;;
75628;SDS011;64213;46.452;16.994;2024-03-06T06:50:41;30.52;;;12.23;;
75628;SDS011;64213;46.452;16.994;2024-03-06T06:53:44;37.83;;;14.45;;
75628;SDS011;64213;46.452;16.994;2024-03-06T06:56:47;35.80;;;11.73;;
75628;SDS011;64213;46.452;16.994;2024-03-06T06:59:49;30.20;;;11.50;;
75628;SDS011;64213;46.452;16.994;2024-03-06T07:02:52;27.87;;;11.05;;
75628;SDS011;64213;46.452;16.994;2024-03-06T07:05:54;21.33;;;7.65;;
75628;SDS011;64213;46.452;16.994;2024-03-06T07:09:00;33.30;;;12.25;;
75628;SDS011;64213;46.452;16.994;2024-03-06T07:12:03;28.77;;;10.30;;
75628;SDS011;64213;46.452;16.994;2024-03-06T07:15:05;21.83;;;8.57;;
75628;SDS011;64213;46.452;16.994;2024-03-06T07:18:08;21.60;;;7.80;;
75628;SDS011;64213;46.452;16.994;2024-03-06T07:21:11;24.48;;;8.73;;
75628;SDS011;64213;46.452;16.994;2024-03-06T07:24:13;26.75;;;11.25;;
75628;SDS011;64213;46.452;16.994;2024-03-06T07:27:15;25.03;;;9.10;;
75628;SDS011;64213;46.452;16.994;2024-03-06T07:30:18;30.40;;;11.57;;
75628;SDS011;64213;46.452;16.994;2024-03-06T07:33:21;31.80;;;11.75;;
75628;SDS011;64213;46.452;16.994;2024-03-06T07:36:23;29.37;;;12.48;;
75628;SDS011;64213;46.452;16.994;2024-03-06T07:39:26;25.12;;;10.13;;
75628;SDS011;64213;46.452;16.994;2024-03-06T07:42:28;28.30;;;12.37;;
75628;SDS011;64213;46.452;16.994;2024-03-06T07:45:31;18.53;;;7.60;;
75628;SDS011;64213;46.452;16.994;2024-03-06T07:48:34;27.05;;;10.95;;
75628;SDS011;64213;46.452;16.994;2024-03-06T07:51:36;28.33;;;11.75;;
75628;SDS011;64213;46.452;16.994;2024-03-06T07:54:39;24.23;;;9.10;;
75628;SDS011;64213;46.452;16.994;2024-03-06T07:57:41;29.93;;;12.60;;
75628;SDS011;64213;46.452;16.994;2024-03-06T08:00:48;21.00;;;8.20;;
75628;SDS011;64213;46.452;16.994;2024-03-06T08:03:50;29.52;;;12.60;;
75628;SDS011;64213;46.452;16.994;2024-03-06T08:06:52;17.08;;;6.53;;
75628;SDS011;64213;46.452;16.994;2024-03-06T08:09:54;31.30;;;12.55;;
75628;SDS011;64213;46.452;16.994;2024-03-06T08:12:57;17.90;;;7.27;;
75628;SDS011;64213;46.452;16.994;2024-03-06T08:15:59;30.40;;;12.37;;
75628;SDS011;64213;46.452;16.994;2024-03-06T08:19:01;32.15;;;12.43;;
75628;SDS011;64213;46.452;16.994;2024-03-06T08:22:04;26.27;;;9.88;;
75628;SDS011;64213;46.452;16.994;2024-03-06T08:25:11;28.92;;;10.55;;
75628;SDS011;64213;46.452;16.994;2024-03-06T08:28:15;35.20;;;12.97;;
75628;SDS011;64213;46.452;16.994;2024-03-06T08:31:17;29.23;;;10.97;;
75628;SDS011;64213;46.452;16.994;2024-03-06T08:34:20;33.28;;;10.35;;
75628;SDS011;64213;46.452;16.994;2024-03-06T08:37:24;30.27;;;12.25;;
75628;SDS011;64213;46.452;16.994;2024-03-06T08:40:27;32.08;;;12.55;;
75628;SDS011;64213;46.452;16.994;2024-03-06T08:43:30;33.97;;;12.60;;
75628;SDS011;64213;46.452;16.994;2024-03-06T08:46:33;27.47;;;8.70;;
75628;SDS011;64213;46.452;16.994;2024-03-06T08:49:35;33.20;;;13.30;;
75628;SDS011;64213;46.452;16.994;2024-03-06T08:52:38;33.88;;;12.43;;
75628;SDS011;64213;46.452;16.994;2024-03-06T08:55:43;31.35;;;13.57;;
75628;SDS011;64213;46.452;16.994;2024-03-06T08:58:45;36.83;;;14.53;;
75628;SDS011;64213;46.452;16.994;2024-03-06T09:01:48;38.47;;;14.97;;
75628;SDS011;64213;46.452;16.994;2024-03-06T09:04:51;34.85;;;12.82;;
75628;SDS011;64213;46.452;16.994;2024-03-06T09:07:54;27.98;;;11.98;;
75628;SDS011;64213;46.452;16.994;2024-03-06T09:11:03;27.23;;;10.73;;
75628;SDS011;64213;46.452;16.994;2024-03-06T09:14:05;16.53;;;6.80;;
75628;SDS011;64213;46.452;16.994;2024-03-06T09:17:08;30.50;;;11.97;;
75628;SDS011;64213;46.452;16.994;2024-03-06T09:20:17;28.60;;;12.10;;
75628;SDS011;64213;46.452;16.994;2024-03-06T09:23:19;27.45;;;11.35;;
75628;SDS011;64213;46.452;16.994;2024-03-06T09:26:23;34.25;;;14.85;;
75628;SDS011;64213;46.452;16.994;2024-03-06T09:29:25;33.23;;;13.93;;
75628;SDS011;64213;46.452;16.994;2024-03-06T09:32:27;32.17;;;13.53;;
75628;SDS011;64213;46.452;16.994;2024-03-06T09:35:30;34.03;;;14.57;;
75628;SDS011;64213;46.452;16.994;2024-03-06T09:38:34;34.60;;;14.20;;
75628;SDS011;64213;46.452;16.994;2024-03-06T09:41:39;26.87;;;9.95;;
75628;SDS011;64213;46.452;16.994;2024-03-06T09:44:43;34.83;;;15.00;;
75628;SDS011;64213;46.452;16.994;2024-03-06T09:47:46;24.03;;;10.27;;
75628;SDS011;64213;46.452;16.994;2024-03-06T09:50:52;34.88;;;14.93;;
75628;SDS011;64213;46.452;16.994;2024-03-06T09:53:59;23.77;;;7.97;;
75628;SDS011;64213;46.452;16.994;2024-03-06T09:57:02;33.53;;;14.65;;
75628;SDS011;64213;46.452;16.994;2024-03-06T10:00:05;23.43;;;9.67;;
75628;SDS011;64213;46.452;16.994;2024-03-06T10:03:08;34.67;;;13.90;;
75628;SDS011;64213;46.452;16.994;2024-03-06T10:06:11;34.70;;;13.60;;
75628;SDS011;64213;46.452;16.994;2024-03-06T10:09:18;24.02;;;10.55;;
75628;SDS011;64213;46.452;16.994;2024-03-06T10:12:21;26.37;;;11.15;;
75628;SDS011;64213;46.452;16.994;2024-03-06T10:15:24;36.30;;;15.70;;
75628;SDS011;64213;46.452;16.994;2024-03-06T10:18:29;36.47;;;12.40;;
75628;SDS011;64213;46.452;16.994;2024-03-06T10:21:32;27.95;;;11.38;;
75628;SDS011;64213;46.452;16.994;2024-03-06T10:24:35;29.58;;;12.85;;
75628;SDS011;64213;46.452;16.994;2024-03-06T10:27:37;34.15;;;13.10;;
75628;SDS011;64213;46.452;16.994;2024-03-06T10:30:40;27.23;;;10.53;;
75628;SDS011;64213;46.452;16.994;2024-03-06T10:33:47;26.67;;;13.30;;
75628;SDS011;64213;46.452;16.994;2024-03-06T10:36:53;24.85;;;11.48;;
75628;SDS011;64213;46.452;16.994;2024-03-06T10:39:58;36.58;;;14.80;;
75628;SDS011;64213;46.452;16.994;2024-03-06T10:43:04;31.00;;;13.70;;
75628;SDS011;64213;46.452;16.994;2024-03-06T10:46:08;22.80;;;8.63;;
75628;SDS011;64213;46.452;16.994;2024-03-06T10:49:14;33.30;;;11.97;;
75628;SDS011;64213;46.452;16.994;2024-03-06T10:52:17;33.83;;;13.38;;
75628;SDS011;64213;46.452;16.994;2024-03-06T10:55:21;34.00;;;14.68;;
75628;SDS011;64213;46.452;16.994;2024-03-06T10:58:23;31.08;;;13.30;;
75628;SDS011;64213;46.452;16.994;2024-03-06T11:01:27;28.60;;;12.80;;
75628;SDS011;64213;46.452;16.994;2024-03-06T11:04:34;30.97;;;14.60;;
75628;SDS011;64213;46.452;16.994;2024-03-06T11:07:36;28.55;;;11.80;;
75628;SDS011;64213;46.452;16.994;2024-03-06T11:10:39;28.52;;;13.20;;
75628;SDS011;64213;46.452;16.994;2024-03-06T11:13:44;29.45;;;13.30;;
75628;SDS011;64213;46.452;16.994;2024-03-06T11:17:02;33.35;;;13.52;;
75628;SDS011;64213;46.452;16.994;2024-03-06T11:20:13;30.17;;;13.63;;
75628;SDS011;64213;46.452;16.994;2024-03-06T11:23:18;32.72;;;13.25;;
75628;SDS011;64213;46.452;16.994;2024-03-06T11:26:22;30.92;;;13.40;;
75628;SDS011;64213;46.452;16.994;2024-03-06T11:29:29;28.52;;;12.40;;
75628;SDS011;64213;46.452;16.994;2024-03-06T11:32:59;28.98;;;13.73;;
75628;SDS011;64213;46.452;16.994;2024-03-06T11:39:23;29.08;;;12.65;;
75628;SDS011;64213;46.452;16.994;2024-03-06T11:42:33;29.20;;;13.30;;
75628;SDS011;64213;46.452;16.994;2024-03-06T11:45:44;27.05;;;13.10;;
75628;SDS011;64213;46.452;16.994;2024-03-06T11:48:53;29.30;;;13.35;;
75628;SDS011;64213;46.452;16.994;2024-03-06T11:51:56;31.17;;;14.23;;
75628;SDS011;64213;46.452;16.994;2024-03-06T11:55:00;28.17;;;14.65;;
75628;SDS011;64213;46.452;16.994;2024-03-06T11:58:02;32.80;;;13.85;;
75628;SDS011;64213;46.452;16.994;2024-03-06T12:01:05;31.85;;;13.62;;
75628;SDS011;64213;46.452;16.994;2024-03-06T12:04:08;27.20;;;12.37;;
75628;SDS011;64213;46.452;16.994;2024-03-06T12:07:10;28.53;;;14.40;;
75628;SDS011;64213;46.452;16.994;2024-03-06T12:10:13;25.95;;;12.88;;
75628;SDS011;64213;46.452;16.994;2024-03-06T12:13:15;26.02;;;12.48;;
75628;SDS011;64213;46.452;16.994;2024-03-06T12:16:18;30.65;;;14.23;;
75628;SDS011;64213;46.452;16.994;2024-03-06T12:19:21;25.88;;;12.13;;
75628;SDS011;64213;46.452;16.994;2024-03-06T12:22:26;29.43;;;14.03;;
75628;SDS011;64213;46.452;16.994;2024-03-06T12:25:28;27.00;;;13.65;;
75628;SDS011;64213;46.452;16.994;2024-03-06T12:28:32;29.50;;;14.63;;
75628;SDS011;64213;46.452;16.994;2024-03-06T12:31:36;26.80;;;12.23;;
75628;SDS011;64213;46.452;16.994;2024-03-06T12:34:42;30.80;;;14.80;;
75628;SDS011;64213;46.452;16.994;2024-03-06T12:37:44;27.07;;;13.57;;
75628;SDS011;64213;46.452;16.994;2024-03-06T12:40:47;26.20;;;12.88;;
75628;SDS011;64213;46.452;16.994;2024-03-06T12:43:49;26.25;;;12.50;;
75628;SDS011;64213;46.452;16.994;2024-03-06T12:46:52;27.58;;;13.07;;
75628;SDS011;64213;46.452;16.994;2024-03-06T12:49:54;28.42;;;13.75;;
75628;SDS011;64213;46.452;16.994;2024-03-06T12:52:57;25.80;;;11.83;;
75628;SDS011;64213;46.452;16.994;2024-03-06T12:55:59;27.70;;;13.10;;
75628;SDS011;64213;46.452;16.994;2024-03-06T12:59:01;30.00;;;13.55;;
75628;SDS011;64213;46.452;16.994;2024-03-06T13:02:04;26.92;;;11.93;;
75628;SDS011;64213;46.452;16.994;2024-03-06T13:05:07;26.70;;;11.80;;
75628;SDS011;64213;46.452;16.994;2024-03-06T13:08:10;19.63;;;7.73;;
75628;SDS011;64213;46.452;16.994;2024-03-06T13:11:16;24.83;;;10.77;;
75628;SDS011;64213;46.452;16.994;2024-03-06T13:14:19;26.92;;;12.43;;
75628;SDS011;64213;46.452;16.994;2024-03-06T13:17:22;28.58;;;12.15;;
75628;SDS011;64213;46.452;16.994;2024-03-06T13:20:25;19.77;;;9.02;;
75628;SDS011;64213;46.452;16.994;2024-03-06T13:23:27;23.97;;;10.50;;
75628;SDS011;64213;46.452;16.994;2024-03-06T13:26:29;17.92;;;7.82;;
75628;SDS011;64213;46.452;16.994;2024-03-06T13:29:32;14.18;;;6.60;;
75628;SDS011;64213;46.452;16.994;2024-03-06T13:32:35;20.70;;;9.88;;
75628;SDS011;64213;46.452;16.994;2024-03-06T13:35:37;24.27;;;11.52;;
75628;SDS011;64213;46.452;16.994;2024-03-06T13:38:39;23.00;;;11.20;;
75628;SDS011;64213;46.452;16.994;2024-03-06T13:41:42;25.35;;;11.98;;
75628;SDS011;64213;46.452;16.994;2024-03-06T13:44:44;21.45;;;10.00;;
75628;SDS011;64213;46.452;16.994;2024-03-06T13:47:46;24.85;;;10.95;;
75628;SDS011;64213;46.452;16.994;2024-03-06T13:50:50;25.83;;;10.90;;
75628;SDS011;64213;46.452;16.994;2024-03-06T13:53:53;21.43;;;10.07;;
75628;SDS011;64213;46.452;16.994;2024-03-06T13:56:55;21.98;;;9.38;;
75628;SDS011;64213;46.452;16.994;2024-03-06T14:00:03;22.65;;;11.27;;
75628;SDS011;64213;46.452;16.994;2024-03-06T14:03:14;19.83;;;8.20;;
75628;SDS011;64213;46.452;16.994;2024-03-06T14:06:16;18.42;;;8.55;;
75628;SDS011;64213;46.452;16.994;2024-03-06T14:09:19;23.67;;;10.30;;
75628;SDS011;64213;46.452;16.994;2024-03-06T14:12:22;23.65;;;9.77;;
75628;SDS011;64213;46.452;16.994;2024-03-06T14:15:26;15.70;;;7.78;;
75628;SDS011;64213;46.452;16.994;2024-03-06T14:18:28;22.90;;;9.45;;
75628;SDS011;64213;46.452;16.994;2024-03-06T14:21:33;21.98;;;10.05;;
75628;SDS011;64213;46.452;16.994;2024-03-06T14:24:36;19.17;;;8.47;;
75628;SDS011;64213;46.452;16.994;2024-03-06T14:27:39;21.45;;;7.28;;
75628;SDS011;64213;46.452;16.994;2024-03-06T14:30:41;23.20;;;9.90;;
75628;SDS011;64213;46.452;16.994;2024-03-06T14:33:45;25.35;;;9.90;;
75628;SDS011;64213;46.452;16.994;2024-03-06T14:36:48;22.75;;;9.55;;
75628;SDS011;64213;46.452;16.994;2024-03-06T14:39:51;25.37;;;10.70;;
75628;SDS011;64213;46.452;16.994;2024-03-06T14:42:53;24.35;;;10.38;;
75628;SDS011;64213;46.452;16.994;2024-03-06T14:45:56;23.80;;;10.20;;
75628;SDS011;64213;46.452;16.994;2024-03-06T14:48:58;23.83;;;10.70;;
75628;SDS011;64213;46.452;16.994;2024-03-06T14:52:01;22.80;;;10.23;;
75628;SDS011;64213;46.452;16.994;2024-03-06T14:55:08;15.03;;;6.60;;
75628;SDS011;64213;46.452;16.994;2024-03-06T14:58:12;22.20;;;8.88;;
75628;SDS011;64213;46.452;16.994;2024-03-06T15:01:14;17.55;;;7.20;;
75628;SDS011;64213;46.452;16.994;2024-03-06T15:04:16;20.67;;;8.02;;
75628;SDS011;64213;46.452;16.994;2024-03-06T15:07:19;23.00;;;9.88;;
75628;SDS011;64213;46.452;16.994;2024-03-06T15:10:23;16.43;;;6.83;;
75628;SDS011;64213;46.452;16.994;2024-03-06T15:13:25;29.30;;;10.77;;
75628;SDS011;64213;46.452;16.994;2024-03-06T15:16:28;23.77;;;9.75;;
75628;SDS011;64213;46.452;16.994;2024-03-06T15:19:31;18.70;;;8.48;;
75628;SDS011;64213;46.452;16.994;2024-03-06T15:22:33;17.75;;;6.53;;
75628;SDS011;64213;46.452;16.994;2024-03-06T15:25:41;16.40;;;7.47;;
75628;SDS011;64213;46.452;16.994;2024-03-06T15:28:46;21.67;;;9.60;;
75628;SDS011;64213;46.452;16.994;2024-03-06T15:31:48;23.58;;;10.50;;
75628;SDS011;64213;46.452;16.994;2024-03-06T15:34:50;23.40;;;10.10;;
75628;SDS011;64213;46.452;16.994;2024-03-06T15:37:55;24.47;;;10.13;;
75628;SDS011;64213;46.452;16.994;2024-03-06T15:40:57;27.17;;;10.10;;
75628;SDS011;64213;46.452;16.994;2024-03-06T15:44:00;21.80;;;9.32;;
75628;SDS011;64213;46.452;16.994;2024-03-06T15:47:02;19.80;;;7.82;;
75628;SDS011;64213;46.452;16.994;2024-03-06T15:50:11;23.60;;;9.52;;
75628;SDS011;64213;46.452;16.994;2024-03-06T15:53:15;25.20;;;9.40;;
75628;SDS011;64213;46.452;16.994;2024-03-06T15:56:17;23.40;;;10.20;;
75628;SDS011;64213;46.452;16.994;2024-03-06T15:59:20;23.00;;;9.52;;
75628;SDS011;64213;46.452;16.994;2024-03-06T16:02:25;17.77;;;7.40;;
75628;SDS011;64213;46.452;16.994;2024-03-06T16:05:28;25.17;;;10.52;;
75628;SDS011;64213;46.452;16.994;2024-03-06T16:08:32;29.27;;;10.00;;
75628;SDS011;64213;46.452;16.994;2024-03-06T16:11:35;24.43;;;8.97;;
75628;SDS011;64213;46.452;16.994;2024-03-06T16:14:37;19.17;;;7.20;;
75628;SDS011;64213;46.452;16.994;2024-03-06T16:17:40;24.87;;;8.35;;
75628;SDS011;64213;46.452;16.994;2024-03-06T16:20:44;26.98;;;10.07;;
75628;SDS011;64213;46.452;16.994;2024-03-06T16:23:48;26.77;;;10.63;;
75628;SDS011;64213;46.452;16.994;2024-03-06T16:26:50;25.03;;;9.30;;
75628;SDS011;64213;46.452;16.994;2024-03-06T16:29:54;24.65;;;10.00;;
75628;SDS011;64213;46.452;16.994;2024-03-06T16:32:58;26.08;;;10.23;;
75628;SDS011;64213;46.452;16.994;2024-03-06T16:36:02;21.48;;;8.05;;
75628;SDS011;64213;46.452;16.994;2024-03-06T16:39:08;21.67;;;9.53;;
75628;SDS011;64213;46.452;16.994;2024-03-06T16:42:10;21.40;;;8.83;;
75628;SDS011;64213;46.452;16.994;2024-03-06T16:45:14;18.23;;;7.53;;
75628;SDS011;64213;46.452;16.994;2024-03-06T16:48:17;20.75;;;8.10;;
75628;SDS011;64213;46.452;16.994;2024-03-06T16:51:20;22.67;;;8.65;;
75628;SDS011;64213;46.452;16.994;2024-03-06T16:54:26;22.93;;;9.27;;
75628;SDS011;64213;46.452;16.994;2024-03-06T16:57:29;24.90;;;9.40;;
75628;SDS011;64213;46.452;16.994;2024-03-06T17:00:33;22.23;;;8.18;;
75628;SDS011;64213;46.452;16.994;2024-03-06T17:03:36;22.48;;;8.60;;
75628;SDS011;64213;46.452;16.994;2024-03-06T17:06:39;14.77;;;6.40;;
75628;SDS011;64213;46.452;16.994;2024-03-06T17:09:41;26.03;;;9.80;;
75628;SDS011;64213;46.452;16.994;2024-03-06T17:12:44;22.13;;;8.97;;
75628;SDS011;64213;46.452;16.994;2024-03-06T17:15:48;24.85;;;9.13;;
75628;SDS011;64213;46.452;16.994;2024-03-06T17:18:52;24.23;;;8.88;;
75628;SDS011;64213;46.452;16.994;2024-03-06T17:21:54;24.48;;;8.85;;
75628;SDS011;64213;46.452;16.994;2024-03-06T17:24:57;28.50;;;9.50;;
75628;SDS011;64213;46.452;16.994;2024-03-06T17:28:00;21.80;;;9.40;;
75628;SDS011;64213;46.452;16.994;2024-03-06T17:31:03;21.12;;;8.60;;
75628;SDS011;64213;46.452;16.994;2024-03-06T17:34:05;24.17;;;7.65;;
75628;SDS011;64213;46.452;16.994;2024-03-06T17:37:08;13.15;;;5.20;;
75628;SDS011;64213;46.452;16.994;2024-03-06T17:40:10;19.10;;;8.53;;
75628;SDS011;64213;46.452;16.994;2024-03-06T17:43:13;21.63;;;8.80;;
75628;SDS011;64213;46.452;16.994;2024-03-06T17:46:16;20.35;;;7.40;;
75628;SDS011;64213;46.452;16.994;2024-03-06T17:49:19;23.67;;;8.63;;